Time;durP1;ratioP1;P1;durP2;ratioP2;P2;SDS_P1;SDS_P2;PMS_P1;PMS_P2;Temp;Humidity;BMP_temperature;BMP_pressure;BME280_temperature;BME280_humidity;BME280_pressure;Samples;Min_cycle;Max_cycle;Signal;HPM_P1;HPM_P2
2022/08/08 00:01:24;;;;;;;14.20;12.73;;;;;;;18.81;100.00;100917.39;1607139;88;21041;-90
2022/08/08 00:04:13;;;;;;;16.23;12.10;;;;;;;18.80;100.00;100922.84;1609906;87;21107;-90
2022/08/08 00:06:47;;;;;;;15.48;12.33;;;;;;;18.78;100.00;100923.48;1606140;88;21084;-90
2022/08/08 00:09:42;;;;;;;14.65;12.73;;;;;;;18.77;100.00;100918.72;1609712;87;21607;-90
2022/08/08 00:12:14;;;;;;;22.37;13.55;;;;;;;18.76;100.00;100918.37;1627442;86;21979;-90
2022/08/08 00:15:04;;;;;;;15.88;12.88;;;;;;;18.74;100.00;100924.30;1607181;89;21541;-90
2022/08/08 00:17:55;;;;;;;21.52;12.73;;;;;;;18.73;100.00;100920.01;1606243;89;21123;-90
2022/08/08 00:20:35;;;;;;;;;;;;;;;18.70;100.00;100919.03;1609774;88;21046;-90
2022/08/08 00:23:08;;;;;;;17.70;12.95;;;;;;;18.64;100.00;100916.55;1607488;87;20161;-90
2022/08/08 00:25:40;;;;;;;20.02;14.38;;;;;;;18.60;100.00;100917.83;1606399;87;21239;-90
2022/08/08 00:28:15;;;;;;;25.52;15.53;;;;;;;18.58;100.00;100915.88;1615666;87;21626;-87
2022/08/08 00:30:50;;;;;;;27.95;18.00;;;;;;;18.56;100.00;100919.97;1595590;87;21100;-90
2022/08/08 00:33:22;;;;;;;23.95;18.17;;;;;;;18.53;100.00;100918.98;1619955;87;21117;-88
2022/08/08 00:36:15;;;;;;;22.85;16.23;;;;;;;18.51;100.00;100915.68;1612206;87;21032;-90
2022/08/08 00:39:05;;;;;;;23.02;16.30;;;;;;;18.49;100.00;100920.78;1602448;89;21194;-89
2022/08/08 00:41:56;;;;;;;17.45;14.58;;;;;;;18.38;100.00;100920.08;1605802;89;21078;-90
2022/08/08 00:44:47;;;;;;;22.73;17.90;;;;;;;18.30;100.00;100918.73;1606163;89;21593;-90
2022/08/08 00:47:32;;;;;;;30.60;18.67;;;;;;;18.24;100.00;100925.45;1605269;89;21123;-90
2022/08/08 00:50:27;;;;;;;24.57;18.37;;;;;;;18.23;100.00;100925.63;1605707;89;21102;-90
2022/08/08 00:53:19;;;;;;;31.75;18.95;;;;;;;18.23;100.00;100917.72;1608905;88;22059;-90
2022/08/08 00:56:13;;;;;;;27.67;19.00;;;;;;;18.23;100.00;100913.26;1606918;89;21454;-90
2022/08/08 00:59:10;;;;;;;23.73;17.70;;;;;;;18.22;100.00;100906.36;1594106;89;21074;-90
2022/08/08 01:02:11;;;;;;;24.98;17.77;;;;;;;18.23;100.00;100915.89;1609124;89;21181;-90
2022/08/08 01:04:48;;;;;;;25.65;18.55;;;;;;;18.22;100.00;100911.63;1608879;88;21081;-90
2022/08/08 01:07:57;;;;;;;25.77;17.30;;;;;;;18.22;100.00;100912.95;1605742;89;21847;-90
2022/08/08 01:10:42;;;;;;;27.48;17.95;;;;;;;18.21;100.00;100912.61;1599810;89;21573;-90
2022/08/08 01:13:53;;;;;;;27.05;17.15;;;;;;;18.20;100.00;100921.50;1606664;89;21588;-90
2022/08/08 01:17:08;;;;;;;22.20;16.97;;;;;;;18.19;100.00;100920.32;1608938;89;22060;-90
2022/08/08 01:20:20;;;;;;;22.42;17.05;;;;;;;18.16;100.00;100912.24;1608862;89;21003;-90
2022/08/08 01:23:26;;;;;;;24.27;17.30;;;;;;;18.15;100.00;100920.31;1585137;89;21190;-90
2022/08/08 01:26:14;;;;;;;21.48;15.90;;;;;;;18.13;100.00;100921.30;1608721;89;20999;-89
2022/08/08 01:29:04;;;;;;;20.48;15.03;;;;;;;18.07;100.00;100925.04;1605605;89;21047;-90
2022/08/08 01:31:57;;;;;;;;;;;;;;;17.99;100.00;100928.47;1598614;88;21082;-90
2022/08/08 01:35:07;;;;;;;18.90;13.93;;;;;;;17.93;100.00;100920.67;1608763;89;20182;-90
2022/08/08 01:37:57;;;;;;;18.70;13.93;;;;;;;17.87;100.00;100927.04;1587350;89;21182;-90
2022/08/08 01:40:48;;;;;;;17.40;14.43;;;;;;;17.80;100.00;100928.17;1597789;89;21461;-90
2022/08/08 01:43:25;;;;;;;19.12;14.20;;;;;;;17.77;100.00;100932.42;1602108;89;21063;-90
2022/08/08 01:46:40;;;;;;;22.27;15.48;;;;;;;17.75;100.00;100934.38;1599637;89;21514;-90
2022/08/08 01:49:30;;;;;;;21.15;14.75;;;;;;;17.74;100.00;100938.83;1599224;89;21083;-90
2022/08/08 01:52:19;;;;;;;22.15;15.32;;;;;;;17.73;100.00;100937.68;1601605;89;21581;-90
2022/08/08 01:55:05;;;;;;;18.02;13.70;;;;;;;17.69;100.00;100942.42;1597152;89;21116;-90
2022/08/08 01:57:50;;;;;;;20.43;14.00;;;;;;;17.63;100.00;100939.91;1577889;90;21111;-90
2022/08/08 02:00:24;;;;;;;17.95;13.00;;;;;;;17.58;100.00;100940.88;1581902;89;21065;-90
2022/08/08 02:03:25;;;;;;;15.98;12.65;;;;;;;17.54;100.00;100949.23;1591846;89;21082;-90
2022/08/08 02:06:11;;;;;;;18.75;13.68;;;;;;;17.53;100.00;100950.20;1597375;89;21174;-90
2022/08/08 02:09:02;;;;;;;18.55;12.88;;;;;;;17.52;100.00;100954.63;1586931;89;21075;-90
2022/08/08 02:11:47;;;;;;;17.57;13.58;;;;;;;17.53;100.00;100947.58;1600022;89;21108;-90
2022/08/08 02:14:43;;;;;;;15.20;12.88;;;;;;;17.50;100.00;100948.71;1602049;89;21061;-90
2022/08/08 02:17:36;;;;;;;18.70;14.18;;;;;;;17.50;100.00;100954.79;1602695;89;21051;-90
2022/08/08 02:20:29;;;;;;;22.58;13.98;;;;;;;17.49;100.00;100960.22;1595462;89;21182;-90
2022/08/08 02:23:10;;;;;;;19.25;15.08;;;;;;;17.48;100.00;100959.88;1588851;89;21134;-90
2022/08/08 02:25:59;;;;;;;23.02;16.42;;;;;;;17.49;100.00;100964.16;1603068;88;22069;-90
2022/08/08 02:29:18;;;;;;;24.87;17.10;;;;;;;17.48;100.00;100965.95;1601659;89;22078;-90
2022/08/08 02:31:57;;;;;;;28.15;20.75;;;;;;;17.49;100.00;100954.95;1590401;89;21003;-90
2022/08/08 02:34:54;;;;;;;29.98;23.20;;;;;;;17.48;100.00;100958.06;1599731;89;21270;-90
2022/08/08 02:37:44;;;;;;;30.37;21.55;;;;;;;17.48;100.00;100958.56;1597936;89;21640;-90
2022/08/08 02:40:34;;;;;;;30.17;21.55;;;;;;;17.49;100.00;100956.27;1594848;88;21057;-90
2022/08/08 02:43:29;;;;;;;22.77;16.45;;;;;;;17.49;100.00;100962.85;1595119;90;21086;-90
2022/08/08 02:46:13;;;;;;;18.42;13.32;;;;;;;17.49;100.00;100962.85;1591389;90;21141;-90
2022/08/08 02:49:30;;;;;;;14.98;12.75;;;;;;;17.43;100.00;100962.12;1595411;90;21157;-90
2022/08/08 02:52:34;;;;;;;16.23;13.38;;;;;;;17.38;100.00;100969.66;1594946;90;21101;-90
2022/08/08 02:55:19;;;;;;;19.95;12.53;;;;;;;17.37;100.00;100970.62;1592113;90;21046;-90
2022/08/08 02:58:27;;;;;;;17.52;13.32;;;;;;;17.35;100.00;100972.92;1594806;90;21497;-89
2022/08/08 03:01:25;;;;;;;16.73;13.83;;;;;;;17.35;100.00;100976.86;1591179;90;21106;-89
2022/08/08 03:04:18;;;;;;;17.12;13.78;;;;;;;17.37;100.00;100981.16;1594780;90;21226;-90
2022/08/08 03:07:19;;;;;;;17.85;13.68;;;;;;;17.38;100.00;100988.08;1594974;88;21590;-89
2022/08/08 03:10:15;;;;;;;16.45;14.13;;;;;;;17.42;100.00;100990.77;1595045;88;21045;-90
2022/08/08 03:13:23;;;;;;;18.98;13.20;;;;;;;17.47;100.00;100991.12;1593573;90;21069;-89
2022/08/08 03:16:20;;;;;;;21.87;15.48;;;;;;;17.54;100.00;100992.17;1562501;90;21580;-89
2022/08/08 03:19:16;;;;;;;28.38;16.55;;;;;;;17.61;100.00;100997.16;1586733;90;21211;-89
2022/08/08 03:21:43;;;;;;;21.25;17.48;;;;;;;17.69;100.00;100998.20;1586453;90;20994;-91
2022/08/08 03:24:11;;;;;;;23.73;18.75;;;;;;;17.73;100.00;100996.94;1596867;88;21663;-91
2022/08/08 03:26:44;;;;;;;29.18;21.00;;;;;;;17.77;100.00;101002.22;1591736;88;21092;-91
2022/08/08 03:29:17;;;;;;;28.10;21.55;;;;;;;17.82;100.00;101003.92;1590848;88;21602;-91
2022/08/08 03:34:37;;;;;;;29.07;20.45;;;;;;;17.93;100.00;101006.79;1593179;88;21073;-92
2022/08/08 03:37:08;;;;;;;27.82;19.60;;;;;;;18.02;100.00;101010.33;1589566;89;21046;-90
2022/08/08 03:39:37;;;;;;;26.00;21.23;;;;;;;18.09;100.00;101007.41;1589912;88;21133;-91
2022/08/08 03:42:05;;;;;;;26.57;20.57;;;;;;;18.18;100.00;101019.66;1593065;88;21596;-91
2022/08/08 03:44:36;;;;;;;23.67;18.62;;;;;;;18.26;100.00;101014.43;1589115;88;21442;-91
2022/08/08 03:47:06;;;;;;;18.33;15.67;;;;;;;18.36;100.00;101017.45;1586172;89;21567;-91
2022/08/08 03:49:34;;;;;;;18.10;14.43;;;;;;;18.45;100.00;101019.96;1589045;88;21083;-90
2022/08/08 03:52:14;;;;;;;18.23;14.78;;;;;;;18.54;100.00;101023.95;1589149;89;21082;-91
2022/08/08 03:54:53;;;;;;;16.05;12.93;;;;;;;18.64;100.00;101028.62;1589324;88;21093;-91
2022/08/08 03:57:20;;;;;;;19.62;15.90;;;;;;;18.72;100.00;101030.45;1592341;88;21166;-91
2022/08/08 03:59:57;;;;;;;23.07;16.70;;;;;;;18.82;100.00;101032.48;1580252;90;21069;-91
2022/08/08 04:02:32;;;;;;;24.92;17.02;;;;;;;18.94;100.00;101034.88;1594354;88;21125;-91
2022/08/08 04:05:05;;;;;;;20.75;15.70;;;;;;;19.07;100.00;101047.10;1594267;90;21133;-90
2022/08/08 04:07:39;;;;;;;14.85;13.45;;;;;;;19.17;100.00;101045.63;1591979;88;21089;-90
2022/08/08 04:10:09;;;;;;;15.53;12.78;;;;;;;19.27;100.00;101044.19;1594605;88;21171;-90
2022/08/08 04:12:40;;;;;;;15.05;13.55;;;;;;;19.37;100.00;101043.05;1594677;88;20974;-90
2022/08/08 04:15:08;;;;;;;13.90;12.30;;;;;;;19.47;100.00;101048.17;1591750;88;22271;-91
2022/08/08 04:17:37;;;;;;;13.93;12.47;;;;;;;19.55;100.00;101054.78;1590712;88;21073;-90
2022/08/08 04:20:07;;;;;;;17.42;13.08;;;;;;;19.66;100.00;101048.34;1588994;90;21718;-91
2022/08/08 04:22:35;;;;;;;16.95;11.75;;;;;;;19.77;100.00;101052.98;1589084;89;21241;-91
2022/08/08 04:25:03;;;;;;;13.65;12.25;;;;;;;19.86;100.00;101056.80;1589062;89;21101;-90
2022/08/08 04:27:33;;;;;;;12.47;10.93;;;;;;;19.98;100.00;101057.79;1588843;90;21172;-90
2022/08/08 04:30:06;;;;;;;13.58;10.32;;;;;;;20.10;100.00;101060.41;1589269;88;21276;-90
2022/08/08 04:32:37;;;;;;;11.38;10.03;;;;;;;20.22;100.00;101062.71;1589155;90;21666;-90
2022/08/08 04:35:05;;;;;;;11.00;9.83;;;;;;;20.34;100.00;101058.70;1589143;89;21152;-91
2022/08/08 04:37:35;;;;;;;10.53;9.63;;;;;;;20.46;100.00;101067.95;1581103;88;28273;-91
2022/08/08 04:40:11;;;;;;;10.45;9.55;;;;;;;20.56;100.00;101061.61;1581054;90;21036;-90
2022/08/08 04:42:41;;;;;;;13.15;9.18;;;;;;;20.69;100.00;101063.72;1630288;86;21054;-91
2022/08/08 04:45:09;;;;;;;11.30;10.20;;;;;;;20.81;100.00;101063.72;1615157;86;21050;-91
2022/08/08 04:47:40;;;;;;;14.23;10.65;;;;;;;20.93;100.00;101062.84;1604360;88;21117;-91
2022/08/08 04:50:09;;;;;;;13.13;11.03;;;;;;;21.07;100.00;101059.96;1604133;88;21038;-91
2022/08/08 04:52:38;;;;;;;12.33;11.08;;;;;;;21.20;100.00;101058.88;1615266;88;21539;-91
2022/08/08 04:55:08;;;;;;;14.60;10.88;;;;;;;21.32;100.00;101056.66;1625723;86;21025;-91
2022/08/08 04:57:37;;;;;;;16.75;11.00;;;;;;;21.44;100.00;101057.88;1628751;86;21034;-91
2022/08/08 05:00:07;;;;;;;11.80;10.50;;;;;;;21.56;100.00;101060.94;1628941;86;21479;-90
2022/08/08 05:02:35;;;;;;;15.55;11.00;;;;;;;21.70;100.00;101063.36;1628836;86;21086;-91
2022/08/08 05:05:05;;;;;;;11.57;10.50;;;;;;;21.82;100.00;101061.63;1628545;87;21105;-91
2022/08/08 05:07:34;;;;;;;14.85;11.08;;;;;;;21.95;100.00;101057.84;1629128;86;21539;-91
2022/08/08 05:10:05;;;;;;;12.98;11.15;;;;;;;22.07;100.00;101052.92;1628721;88;21096;-91
2022/08/08 05:12:35;;;;;;;12.60;10.58;;;;;;;22.20;100.00;101052.30;1635799;85;21608;-91
2022/08/08 05:15:03;;;;;;;11.45;10.32;;;;;;;22.33;100.00;101053.81;1640559;86;21046;-91
2022/08/08 05:17:31;;;;;;;13.62;10.23;;;;;;;22.47;100.00;101056.70;1643907;86;21148;-90
2022/08/08 05:20:00;;;;;;;11.83;10.65;;;;;;;22.59;100.00;101056.54;1642081;86;21093;-90
2022/08/08 05:22:41;;;;;;;11.80;10.58;;;;;;;22.71;100.00;101056.09;1640809;86;21121;-91
2022/08/08 05:25:09;;;;;;;12.13;10.85;;;;;;;22.81;100.00;101061.42;1626020;87;21259;-91
2022/08/08 05:27:36;;;;;;;12.03;10.82;;;;;;;22.94;100.00;101063.41;1628909;87;21089;-91
2022/08/08 05:30:05;;;;;;;13.03;11.35;;;;;;;23.04;100.00;101058.28;1625578;86;21141;-91
2022/08/08 05:32:39;;;;;;;13.32;11.35;;;;;;;23.14;100.00;101057.48;1628406;86;21154;-90
2022/08/08 05:35:08;;;;;;;14.03;11.78;;;;;;;23.23;100.00;101057.72;1629555;86;21088;-91
2022/08/08 05:37:50;;;;;;;12.40;11.20;;;;;;;23.34;100.00;101060.37;1603372;88;21512;-91
2022/08/08 05:40:21;;;;;;;15.20;13.10;;;;;;;23.43;100.00;101059.25;1618141;86;21095;-91
2022/08/08 05:42:51;;;;;;;14.33;12.93;;;;;;;23.52;100.00;101057.27;1619843;87;21188;-91
2022/08/08 05:45:18;;;;;;;15.25;13.05;;;;;;;23.61;100.00;101056.13;1620000;87;21053;-91
2022/08/08 05:47:50;;;;;;;12.98;11.65;;;;;;;23.71;100.00;101052.33;1620014;87;21543;-91
2022/08/08 05:50:19;;;;;;;15.20;12.65;;;;;;;23.81;100.00;101059.48;1625947;87;21819;-91
2022/08/08 05:52:49;;;;;;;13.68;12.07;;;;;;;23.96;100.00;101055.92;1629785;86;21054;-91
2022/08/08 05:55:16;;;;;;;12.70;11.60;;;;;;;24.07;100.00;101054.08;1629966;86;21499;-91
2022/08/08 05:57:46;;;;;;;13.20;11.95;;;;;;;24.18;100.00;101054.84;1630057;88;21061;-90
2022/08/08 06:00:15;;;;;;;13.55;11.78;;;;;;;24.31;100.00;101054.63;1629865;86;21049;-90
2022/08/08 06:05:59;;;;;;;17.00;12.18;;;;;;;24.52;100.00;101053.20;1617166;87;21038;-91
2022/08/08 06:08:34;;;;;;;14.70;12.00;;;;;;;24.67;100.00;101056.26;1620380;87;21121;-91
2022/08/08 06:11:05;;;;;;;16.40;12.60;;;;;;;24.80;100.00;101050.98;1616995;87;21034;-91
2022/08/08 06:13:35;;;;;;;14.50;12.93;;;;;;;24.94;100.00;101053.18;1620223;87;21073;-90
2022/08/08 06:16:04;;;;;;;13.65;12.33;;;;;;;25.07;100.00;101047.08;1620311;87;21156;-91
2022/08/08 06:18:54;;;;;;;13.68;12.30;;;;;;;25.17;100.00;101048.84;1620533;86;21556;-90
2022/08/08 06:21:21;;;;;;;15.63;12.45;;;;;;;25.31;100.00;101052.86;1628444;86;21118;-91
2022/08/08 06:23:50;;;;;;;13.93;12.53;;;;;;;25.43;100.00;101043.28;1628664;88;21172;-91
2022/08/08 06:26:29;;;;;;;15.50;12.60;;;;;;;25.56;100.00;101048.30;1629161;86;21070;-91
2022/08/08 06:29:05;;;;;;;13.78;11.68;;;;;;;25.70;100.00;101057.94;1619583;88;21274;-91
2022/08/08 06:31:37;;;;;;;12.93;11.03;;;;;;;25.80;100.00;101051.69;1627727;88;21542;-92
2022/08/08 06:34:10;;;;;;;13.50;12.15;;;;;;;25.90;100.00;101053.92;1571666;90;21053;-92
2022/08/08 06:36:44;;;;;;;14.87;12.13;;;;;;;26.02;100.00;101054.11;1564760;90;21619;-92
2022/08/08 06:39:13;;;;;;;11.80;10.70;;;;;;;26.15;100.00;101058.64;1623084;87;21085;-91
2022/08/08 06:42:01;;;;;;;15.10;11.85;;;;;;;26.27;100.00;101060.16;1622163;87;21172;-91
2022/08/08 06:44:37;;;;;;;12.47;11.10;;;;;;;26.37;100.00;101062.38;1608083;87;21063;-92
2022/08/08 06:47:04;;;;;;;12.73;11.18;;;;;;;26.47;100.00;101061.96;1622578;87;21117;-91
2022/08/08 06:49:32;;;;;;;16.35;11.38;;;;;;;26.56;100.00;101071.38;1625680;87;21112;-92
2022/08/08 06:52:00;;;;;;;14.35;10.30;;;;;;;26.65;100.00;101064.75;1625264;87;21106;-92
2022/08/08 06:54:31;;;;;;;12.00;10.88;;;;;;;26.72;100.00;101065.54;1626833;86;21118;-91
2022/08/08 06:57:03;;;;;;;13.98;10.98;;;;;;;26.81;100.00;101063.98;1621848;88;21089;-91
2022/08/08 06:59:34;;;;;;;11.70;10.30;;;;;;;26.91;100.00;101059.86;1628137;86;21164;-92
2022/08/08 07:02:04;;;;;;;12.43;11.20;;;;;;;27.04;100.00;101062.14;1622947;86;21124;-93
2022/08/08 07:04:59;;;;;;;14.93;11.18;;;;;;;27.15;100.00;101061.97;1615853;87;21079;-91
2022/08/08 07:07:32;;;;;;;12.03;10.75;;;;;;;27.24;100.00;101059.34;1609248;87;21154;-90
2022/08/08 07:10:05;;;;;;;17.90;10.00;;;;;;;27.36;100.00;101062.95;1588612;88;21114;-90
2022/08/08 07:12:45;;;;;;;12.75;9.10;;;;;;;27.50;100.00;101065.58;1599648;87;21085;-90
2022/08/08 07:15:15;;;;;;;8.40;7.12;;;;;;;27.63;100.00;101061.45;1607047;87;21549;-91
2022/08/08 07:17:49;;;;;;;16.30;7.85;;;;;;;27.71;96.09;101061.70;1610089;87;21034;-90
2022/08/08 07:20:36;;;;;;;8.70;7.92;;;;;;;27.79;92.76;101065.95;1608442;86;21154;-90
2022/08/08 07:23:44;;;;;;;8.78;7.05;;;;;;;27.89;94.14;101068.95;1608027;88;21066;-90
2022/08/08 07:26:16;;;;;;;7.87;7.12;;;;;;;28.00;81.37;101065.53;1615096;87;21075;-90
2022/08/08 07:28:44;;;;;;;13.80;7.12;;;;;;;28.14;79.23;101069.46;1600027;87;21701;-90
2022/08/08 07:31:12;;;;;;;10.25;7.00;;;;;;;28.24;83.71;101064.92;1615100;87;21090;-90
2022/08/08 07:33:40;;;;;;;7.83;6.83;;;;;;;28.33;88.60;101060.38;1615000;87;21794;-89
2022/08/08 07:36:10;;;;;;;9.10;6.97;;;;;;;28.47;93.38;101070.42;1614689;88;21052;-89
2022/08/08 07:38:40;;;;;;;9.37;7.23;;;;;;;28.61;90.65;101069.75;1611258;87;21034;-90
2022/08/08 07:41:08;;;;;;;10.70;6.95;;;;;;;28.73;93.35;101066.33;1607919;88;20990;-90
2022/08/08 07:43:40;;;;;;;7.00;6.40;;;;;;;28.85;94.18;101065.88;1606571;87;21102;-90
2022/08/08 07:46:09;;;;;;;7.08;6.35;;;;;;;28.95;88.24;101067.50;1617801;88;21122;-90
2022/08/08 07:48:38;;;;;;;7.08;5.55;;;;;;;29.06;79.70;101069.08;1615251;87;21029;-90
2022/08/08 07:51:09;;;;;;;6.08;5.50;;;;;;;29.15;75.71;101070.94;1589657;88;21633;-89
2022/08/08 07:54:05;;;;;;;6.80;5.37;;;;;;;29.25;77.57;101066.65;1575786;88;21046;-89
2022/08/08 07:56:39;;;;;;;7.10;5.00;;;;;;;29.37;78.86;101067.21;1582094;89;21682;-89
2022/08/08 07:59:15;;;;;;;11.28;5.50;;;;;;;29.49;72.75;101060.52;1586188;88;21254;-89
2022/08/08 08:01:53;;;;;;;10.03;5.33;;;;;;;29.60;74.03;101059.73;1577500;89;21042;-89
2022/08/08 08:04:27;;;;;;;5.70;5.20;;;;;;;29.71;70.96;101057.59;1575677;90;21085;-89
2022/08/08 08:06:59;;;;;;;7.05;4.83;;;;;;;29.82;69.86;101061.33;1582990;88;21548;-90
2022/08/08 08:09:37;;;;;;;5.15;4.70;;;;;;;29.93;65.97;101067.77;1576221;89;21670;-89
2022/08/08 08:12:06;;;;;;;7.15;4.35;;;;;;;30.02;62.69;101065.53;1566335;90;21198;-89
2022/08/08 08:14:50;;;;;;;5.42;4.92;;;;;;;30.14;65.34;101066.86;1565598;90;21101;-89
2022/08/08 08:17:19;;;;;;;8.28;4.53;;;;;;;30.23;62.38;101070.82;1566628;91;21061;-89
2022/08/08 08:19:52;;;;;;;5.20;4.20;;;;;;;30.33;62.21;101068.87;1567575;90;21577;-89
2022/08/08 08:22:22;;;;;;;7.83;4.90;;;;;;;30.42;62.22;101067.45;1566670;90;21102;-89
2022/08/08 08:24:52;;;;;;;8.75;5.50;;;;;;;30.52;63.25;101066.35;1567284;90;21185;-87
2022/08/08 08:27:23;;;;;;;5.30;4.90;;;;;;;30.63;61.21;101066.56;1538895;92;21486;-88
2022/08/08 08:29:53;;;;;;;7.45;5.05;;;;;;;30.71;58.72;101064.01;1565702;91;21085;-89
2022/08/08 08:32:25;;;;;;;7.80;4.97;;;;;;;30.80;61.25;101067.95;1567388;90;21543;-87
2022/08/08 08:34:53;;;;;;;6.22;5.15;;;;;;;30.85;59.24;101068.03;1567542;90;21084;-88
2022/08/08 08:37:23;;;;;;;7.28;4.80;;;;;;;30.96;59.89;101069.06;1538911;93;21301;-88
2022/08/08 08:39:52;;;;;;;8.15;5.22;;;;;;;31.04;61.06;101064.64;1588733;88;21081;-86
2022/08/08 08:42:25;;;;;;;6.30;5.70;;;;;;;31.17;61.25;101065.41;1595824;88;21097;-88
2022/08/08 08:44:53;;;;;;;7.42;5.17;;;;;;;31.27;59.26;101061.55;1595804;88;21685;-90
2022/08/08 08:47:24;;;;;;;7.78;5.10;;;;;;;31.37;62.90;101059.55;1595680;88;21053;-90
2022/08/08 08:49:52;;;;;;;13.88;6.00;;;;;;;31.46;62.40;101061.58;1596075;90;21146;-88
2022/08/08 08:52:22;;;;;;;9.95;5.72;;;;;;;31.52;56.58;101066.52;1595767;88;21027;-89
2022/08/08 08:54:53;;;;;;;10.50;5.78;;;;;;;31.57;56.67;101063.09;1612071;85;21121;-88
2022/08/08 08:57:23;;;;;;;12.18;6.05;;;;;;;31.61;60.27;101062.88;1626569;88;21077;-89
2022/08/08 08:59:55;;;;;;;7.10;6.40;;;;;;;31.68;60.61;101067.61;1629477;87;21046;-89
2022/08/08 09:02:25;;;;;;;6.85;5.80;;;;;;;31.82;58.31;101056.50;1626844;88;21094;-89
2022/08/08 09:05:01;;;;;;;8.05;6.15;;;;;;;31.82;58.31;101056.50;1624786;86;21073;-89
2022/08/08 09:07:34;;;;;;;6.85;5.87;;;;;;;31.87;56.73;101055.21;1627340;87;21057;-90
2022/08/08 09:10:04;;;;;;;8.00;5.97;;;;;;;31.92;57.89;101058.00;1621403;87;21014;-90
2022/08/08 09:12:39;;;;;;;8.35;5.90;;;;;;;32.02;55.83;101052.73;1620601;87;21030;-90
2022/08/08 09:15:09;;;;;;;7.22;5.87;;;;;;;32.10;58.01;101054.19;1624738;87;21471;-89
2022/08/08 09:17:41;;;;;;;6.40;5.67;;;;;;;32.10;58.01;101054.19;1623728;88;21045;-89
2022/08/08 09:20:10;;;;;;;7.15;5.40;;;;;;;32.23;56.37;101059.23;1629388;86;21112;-90
2022/08/08 09:22:38;;;;;;;7.27;5.50;;;;;;;32.23;56.37;101059.23;1625743;88;21095;-91
2022/08/08 09:25:06;;;;;;;5.58;5.08;;;;;;;32.28;56.67;101060.37;1626289;86;20998;-90
2022/08/08 09:27:36;;;;;;;6.42;4.95;;;;;;;32.34;56.42;101061.51;1624454;86;21151;-89
2022/08/08 09:30:08;;;;;;;6.53;5.67;;;;;;;32.49;55.13;101062.23;1624703;86;21069;-90
2022/08/08 09:32:53;;;;;;;5.33;4.83;;;;;;;32.49;55.13;101062.23;1625273;88;21070;-90
2022/08/08 09:35:29;;;;;;;9.10;5.08;;;;;;;32.56;55.84;101054.77;1617725;87;21488;-90
2022/08/08 09:38:03;;;;;;;6.83;5.12;;;;;;;32.63;51.49;101054.58;1624377;87;21104;-90
2022/08/08 09:40:33;;;;;;;6.17;5.22;;;;;;;32.67;53.03;101054.34;1616346;86;21860;-90
2022/08/08 09:43:14;;;;;;;4.30;3.90;;;;;;;32.77;56.18;101053.65;1618647;87;21074;-90
2022/08/08 09:46:00;;;;;;;4.70;4.22;;;;;;;32.87;53.48;101057.00;1611938;88;25381;-90
2022/08/08 09:48:31;;;;;;;8.53;4.40;;;;;;;32.98;53.38;101050.63;1620246;87;21084;-88
2022/08/08 09:51:01;;;;;;;5.47;4.40;;;;;;;33.10;48.93;101049.66;1614699;87;21117;-88
2022/08/08 09:53:52;;;;;;;6.08;4.03;;;;;;;33.22;48.42;101052.19;1616710;87;21842;-89
2022/08/08 09:56:21;;;;;;;6.12;4.25;;;;;;;33.28;47.59;101045.23;1618576;87;21026;-89
2022/08/08 09:58:58;;;;;;;4.65;4.20;;;;;;;33.37;46.49;101042.09;1618846;87;21054;-88
2022/08/08 10:01:33;;;;;;;5.47;3.87;;;;;;;33.45;46.46;101045.11;1612688;87;21031;-88
2022/08/08 10:04:07;;;;;;;7.62;4.00;;;;;;;33.57;48.50;101043.56;1613917;87;21070;-88
2022/08/08 10:06:42;;;;;;;4.72;4.25;;;;;;;33.70;49.47;101046.34;1617844;88;21110;-88
2022/08/08 10:09:12;;;;;;;5.40;4.72;;;;;;;33.77;48.58;101040.73;1613613;87;21603;-89
2022/08/08 10:11:49;;;;;;;6.22;4.05;;;;;;;33.85;44.82;101038.91;1615620;87;21082;-89
2022/08/08 10:14:18;;;;;;;5.33;3.65;;;;;;;33.91;43.76;101039.20;1603145;88;21073;-88
2022/08/08 10:16:45;;;;;;;5.55;2.92;;;;;;;33.95;41.03;101038.95;1616278;88;21125;-89
2022/08/08 10:19:13;;;;;;;3.98;3.22;;;;;;;34.01;37.67;101038.44;1614049;87;21107;-89
2022/08/08 10:21:42;;;;;;;3.85;3.52;;;;;;;34.08;40.78;101034.16;1616887;88;21137;-89
2022/08/08 10:24:11;;;;;;;5.65;4.30;;;;;;;34.13;41.21;101032.27;1619670;87;21101;-89
2022/08/08 10:26:55;;;;;;;5.22;3.42;;;;;;;34.20;40.08;101033.37;1613501;87;21054;-89
2022/08/08 10:29:56;;;;;;;5.50;4.28;;;;;;;34.20;42.16;101033.93;1620683;87;21062;-89
2022/08/08 10:32:31;;;;;;;4.30;3.90;;;;;;;34.18;43.69;101026.07;1614855;87;21826;-88
2022/08/08 10:35:06;;;;;;;6.35;3.80;;;;;;;34.20;42.04;101023.13;1620396;88;21125;-89
2022/08/08 10:37:36;;;;;;;8.65;4.37;;;;;;;34.27;41.94;101024.48;1612218;88;21050;-88
2022/08/08 10:40:14;;;;;;;5.85;3.90;;;;;;;34.36;40.01;101026.67;1613475;87;21019;-89
2022/08/08 10:42:42;;;;;;;3.87;2.90;;;;;;;34.40;38.25;101023.20;1613269;88;21054;-88
2022/08/08 10:45:12;;;;;;;3.05;2.85;;;;;;;34.42;34.90;101018.88;1614391;87;21130;-89
2022/08/08 10:47:43;;;;;;;4.95;4.22;;;;;;;34.42;36.55;101018.88;1617970;88;20979;-90
2022/08/08 10:50:11;;;;;;;5.00;4.55;;;;;;;34.48;37.84;101021.89;1611629;87;21091;-89
2022/08/08 10:52:41;;;;;;;5.55;4.67;;;;;;;34.50;39.66;101021.06;1620971;87;21058;-88
2022/08/08 10:55:17;;;;;;;4.70;4.17;;;;;;;34.54;41.87;101017.28;1614503;88;21038;-88
2022/08/08 10:57:49;;;;;;;6.33;4.05;;;;;;;34.59;38.98;101014.61;1618054;88;21159;-88
2022/08/08 11:00:24;;;;;;;5.10;4.15;;;;;;;34.66;37.29;101018.38;1600770;88;21961;-88
2022/08/08 11:02:53;;;;;;;5.72;3.83;;;;;;;34.72;37.44;101011.38;1619500;88;21055;-88
2022/08/08 11:05:22;;;;;;;5.28;4.37;;;;;;;34.84;40.00;101011.11;1613870;88;21070;-88
2022/08/08 11:07:56;;;;;;;6.65;3.55;;;;;;;34.88;39.58;101010.86;1618591;87;21085;-89
2022/08/08 11:10:24;;;;;;;5.80;3.80;;;;;;;34.88;37.89;101016.27;1566486;90;21535;-88
2022/08/08 11:13:01;;;;;;;5.72;3.60;;;;;;;34.86;35.53;101007.60;1621219;88;21074;-88
2022/08/08 11:15:30;;;;;;;6.17;4.12;;;;;;;34.85;34.90;101010.03;1621338;87;20986;-89
2022/08/08 11:17:59;;;;;;;5.15;4.10;;;;;;;34.88;39.13;101009.50;1642010;86;21026;-89
2022/08/08 11:20:28;;;;;;;4.60;3.85;;;;;;;34.87;37.53;101009.23;1624848;87;21557;-89
2022/08/08 11:23:01;;;;;;;6.75;3.90;;;;;;;34.87;38.34;101015.99;1622306;87;39213;-89
2022/08/08 11:25:33;;;;;;;4.00;3.65;;;;;;;34.88;39.11;101012.21;1621699;88;21003;-88
2022/08/08 11:28:04;;;;;;;5.35;3.25;;;;;;;34.93;38.99;101013.30;1625360;88;21125;-88
2022/08/08 11:30:35;;;;;;;3.85;3.45;;;;;;;34.99;37.04;101014.41;1623924;86;21025;-88
2022/08/08 11:33:04;;;;;;;9.75;8.58;;;;;;;35.05;35.85;101017.38;1622238;88;22059;-89
2022/08/08 11:35:33;;;;;;;7.05;4.42;;;;;;;35.05;36.25;101009.25;1621682;86;21858;-91
2022/08/08 11:38:02;;;;;;;7.47;3.72;;;;;;;35.10;37.40;101008.44;1619448;87;21671;-91
2022/08/08 11:40:30;;;;;;;5.10;3.58;;;;;;;35.15;36.34;101011.13;1602393;88;21508;-88
2022/08/08 11:43:00;;;;;;;6.97;3.92;;;;;;;35.20;33.87;101008.97;1582442;88;21010;-88
2022/08/08 11:45:30;;;;;;;5.97;3.40;;;;;;;35.25;36.03;101010.86;1586555;88;21069;-88
2022/08/08 11:48:00;;;;;;;3.77;3.47;;;;;;;35.28;37.59;101013.03;1582138;87;21139;-88
2022/08/08 11:50:29;;;;;;;3.90;3.60;;;;;;;35.31;36.61;101009.77;1583715;88;21101;-89
2022/08/08 11:53:00;;;;;;;3.85;3.55;;;;;;;35.32;35.93;101010.86;1580836;88;21203;-89
2022/08/08 11:55:27;;;;;;;4.37;3.80;;;;;;;35.41;36.96;101008.98;1584636;88;21050;-89
2022/08/08 11:58:07;;;;;;;6.12;3.90;;;;;;;35.42;34.51;101014.64;1588149;88;21085;-89
2022/08/08 12:00:48;;;;;;;5.60;4.03;;;;;;;35.47;35.74;101014.09;1601972;88;21760;-88
2022/08/08 12:03:26;;;;;;;4.42;3.75;;;;;;;35.54;36.44;101006.50;1562763;89;21686;-88